Exy Johnson — WDB3395 — position and weather

sailwx.info

Track history (hours):
 
Tides and Currents Weather Stations Pressure Air Temp Water Temp Dewpoint Dewpoint Depression Visibility Wind Speed Wind Dir Waves Ship Positions

Exy Johnson (United States)

Ship's website: http://www.lamitopsail.org/index.asp

Owner: Los Angeles Maritime Institute, San Pedro, CA. More information available from US FCC via Universal Licensing System and Coast Guard Vessel Documentation Center.

Last reported at 2018-Dec-12 05:08 UTC. Time now 2018-Dec-12 06:11 UTC.
Position N 33°44' W 118°17'.

Length 34 m; draft 3.7 m.

Type: Sailing vessel. MMSI: 366883970.

Date/timePositionNaut miles runAvg speedWind from/ knotsBaromVisibWave heightAir tempDewpointWater temp
2018-Dec-12 05:08N 33°44' W 118°17'0 0.0
2018-Dec-12 04:27N 33°44' W 118°17'0 0.0
2018-Dec-12 03:45N 33°44' W 118°17'0 0.0
2018-Dec-12 03:27N 33°44' W 118°17'0 0.0
2018-Dec-12 02:51N 33°44' W 118°17'0 0.0
2018-Dec-12 02:18N 33°44' W 118°17'0 0.0
2018-Dec-12 00:41N 33°44' W 118°17'0 0.0
2018-Dec-12 00:25N 33°44' W 118°17'0 0.0
2018-Dec-11 23:39N 33°44' W 118°17'0 0.0
2018-Dec-11 23:10N 33°44' W 118°17'0 0.0
2018-Dec-11 22:55N 33°44' W 118°17'0 0.0
2018-Dec-11 22:13N 33°44' W 118°17'0 0.0
2018-Dec-11 21:55N 33°44' W 118°17'0 0.0
2018-Dec-11 21:16N 33°44' W 118°17'0 0.0
2018-Dec-11 20:59N 33°44' W 118°17'0 0.0
2018-Dec-11 20:29N 33°44' W 118°17'2 4.8
2018-Dec-11 20:00N 33°43' W 118°15'3 6.7
2018-Dec-11 19:30N 33°40' W 118°12'4 4.5
2018-Dec-11 18:34N 33°36' W 118°10'2 4.9
2018-Dec-11 18:14N 33°37' W 118°12'1 5.1
2018-Dec-11 17:59N 33°38' W 118°13'2 5.1
2018-Dec-11 17:30N 33°40' W 118°15'3 5.7
2018-Dec-11 17:00N 33°43' W 118°15'2 3.3
2018-Dec-11 16:24N 33°44' W 118°17'0 0.0
2018-Dec-11 15:39N 33°44' W 118°17'0 0.0
2018-Dec-11 15:25N 33°44' W 118°17'0 0.0
2018-Dec-11 14:29N 33°44' W 118°17'0 0.0
2018-Dec-11 13:59N 33°44' W 118°17'0 0.0
2018-Dec-11 12:27N 33°44' W 118°17'0 0.0
2018-Dec-11 11:55N 33°44' W 118°17'0 0.0
2018-Dec-11 11:21N 33°44' W 118°17'0 0.0
2018-Dec-11 11:00N 33°44' W 118°17'0 0.0
2018-Dec-11 10:29N 33°44' W 118°17'0 0.0
2018-Dec-11 09:58N 33°44' W 118°17'0 0.0
2018-Dec-11 09:05N 33°44' W 118°17'0 0.0
2018-Dec-11 08:45N 33°44' W 118°17'0 0.0
2018-Dec-11 08:29N 33°44' W 118°17'0 0.0
2018-Dec-11 08:00N 33°44' W 118°17'0 0.0
2018-Dec-11 07:26N 33°44' W 118°17'0 0.0
2018-Dec-11 06:53N 33°44' W 118°17'0 0.0
2018-Dec-11 06:30N 33°44' W 118°17'0 0.0
2018-Dec-11 04:45N 33°44' W 118°17'0 0.0
2018-Dec-11 04:28N 33°44' W 118°17'0 0.0
2018-Dec-11 03:54N 33°44' W 118°17'0 0.0
2018-Dec-11 01:49N 33°44' W 118°17'0 0.0
2018-Dec-11 00:54N 33°44' W 118°17'0 0.0
2018-Dec-11 00:21N 33°44' W 118°17'0 0.0
2018-Dec-10 23:24N 33°44' W 118°17'0 0.0
2018-Dec-10 22:52N 33°44' W 118°17'0 0.0
2018-Dec-10 22:23N 33°44' W 118°17'0 0.0
2018-Dec-10 21:57N 33°44' W 118°17'0 0.0
2018-Dec-10 21:25N 33°44' W 118°17'0 0.0
2018-Dec-10 20:53N 33°44' W 118°17'0 0.0
2018-Dec-10 20:25N 33°44' W 118°17'0 0.0
2018-Dec-10 19:58N 33°44' W 118°17'0 0.0
2018-Dec-10 19:30N 33°44' W 118°17'0 0.0
2018-Dec-10 19:00N 33°44' W 118°17'0 0.0
2018-Dec-10 18:14N 33°44' W 118°17'0 0.0
2018-Dec-10 17:46N 33°44' W 118°17'0 0.0
2018-Dec-10 17:25N 33°44' W 118°17'0 0.0
2018-Dec-10 16:50N 33°44' W 118°17'0 0.0
2018-Dec-10 16:04N 33°44' W 118°17'0 0.0
2018-Dec-10 15:56N 33°44' W 118°17'0 0.0
2018-Dec-10 15:25N 33°44' W 118°17'0 0.0
2018-Dec-10 14:51N 33°44' W 118°17'0 0.0
2018-Dec-10 14:30N 33°44' W 118°17'0 0.0
2018-Dec-10 13:39N 33°44' W 118°17'0 0.0
2018-Dec-10 13:00N 33°44' W 118°17'0 0.0
2018-Dec-10 12:28N 33°44' W 118°17'0 0.0
2018-Dec-10 11:40N 33°44' W 118°17'0 0.0
2018-Dec-10 11:25N 33°44' W 118°17'0 0.0
2018-Dec-10 10:54N 33°44' W 118°17'0 0.0
2018-Dec-10 10:30N 33°44' W 118°17'0 0.0
2018-Dec-10 09:58N 33°44' W 118°17'0 0.0
2018-Dec-10 09:00N 33°44' W 118°17'0 0.0
2018-Dec-10 08:15N 33°44' W 118°17'0 0.0
2018-Dec-10 07:58N 33°44' W 118°17'0 0.0
2018-Dec-10 07:14N 33°44' W 118°17'0 0.0
2018-Dec-10 06:58N 33°44' W 118°17'0 0.0
2018-Dec-10 06:07N 33°44' W 118°17'0 0.0
2018-Dec-10 05:39N 33°44' W 118°17'0 0.0
2018-Dec-10 05:24N 33°44' W 118°17'0 0.0
2018-Dec-10 04:36N 33°44' W 118°17'0 0.0
2018-Dec-10 04:25N 33°44' W 118°17'0 0.0
2018-Dec-10 03:49N 33°44' W 118°17'0 0.0
2018-Dec-10 02:30N 33°44' W 118°17'0 0.0
2018-Dec-10 01:54N 33°44' W 118°17'0 0.0
2018-Dec-10 01:24N 33°44' W 118°17'0 0.0
2018-Dec-10 00:54N 33°44' W 118°17'0 0.0
2018-Dec-10 00:27N 33°44' W 118°17'0 0.0
2018-Dec-09 23:58N 33°44' W 118°17'0 0.0
2018-Dec-09 23:28N 33°44' W 118°17'0 0.0
2018-Dec-09 22:51N 33°44' W 118°17'0 0.0
2018-Dec-09 22:22N 33°44' W 118°17'0 0.0
2018-Dec-09 21:57N 33°44' W 118°17'0 0.0
2018-Dec-09 21:29N 33°44' W 118°17'0 0.0
2018-Dec-09 20:53N 33°44' W 118°17'0 0.0
2018-Dec-09 20:25N 33°44' W 118°17'0 0.0
2018-Dec-09 19:58N 33°44' W 118°17'0 0.0
2018-Dec-09 19:24N 33°44' W 118°17'0 0.0
2018-Dec-09 18:59N 33°44' W 118°17'0 0.0
2018-Dec-09 18:25N 33°44' W 118°17'0 0.0
2018-Dec-09 17:57N 33°44' W 118°17'0 0.0
2018-Dec-09 17:18N 33°44' W 118°17'0 0.0
2018-Dec-09 16:51N 33°44' W 118°17'0 0.0
2018-Dec-09 16:30N 33°44' W 118°17'0 0.0
2018-Dec-09 15:43N 33°44' W 118°17'0 0.0
2018-Dec-09 15:17N 33°44' W 118°17'0 0.0
2018-Dec-09 14:48N 33°44' W 118°17'0 0.0
2018-Dec-09 14:22N 33°44' W 118°17'0 0.0
2018-Dec-09 13:39N 33°44' W 118°17'0 0.0
2018-Dec-09 13:27N 33°44' W 118°17'0 0.0
2018-Dec-09 13:00N 33°44' W 118°17'0 0.0
2018-Dec-09 12:22N 33°44' W 118°17'0 0.0
2018-Dec-09 11:26N 33°44' W 118°17'0 0.0
2018-Dec-09 10:56N 33°44' W 118°17'0 0.0
2018-Dec-09 10:22N 33°44' W 118°17'0 0.0
2018-Dec-09 09:55N 33°44' W 118°17'0 0.0
2018-Dec-09 09:30N 33°44' W 118°17'0 0.0
2018-Dec-09 08:58N 33°44' W 118°17'0 0.0
2018-Dec-09 08:29N 33°44' W 118°17'0 0.0
2018-Dec-09 07:48N 33°44' W 118°17'0 0.0
2018-Dec-09 07:26N 33°44' W 118°17'0 0.0
2018-Dec-09 06:51N 33°44' W 118°17'0 0.0
2018-Dec-09 06:11N 33°44' W 118°17'0 0.0
2018-Dec-09 06:00N 33°44' W 118°17'0 0.0
2018-Dec-09 05:24N 33°44' W 118°17'0 0.0
2018-Dec-09 04:54N 33°44' W 118°17'0 0.0
2018-Dec-09 04:27N 33°44' W 118°17'0 0.0
2018-Dec-09 03:59N 33°44' W 118°17'0 0.0
2018-Dec-09 03:25N 33°44' W 118°17'0 0.0
2018-Dec-09 02:59N 33°44' W 118°17'0 0.0
2018-Dec-09 02:24N 33°44' W 118°17'0 0.0
2018-Dec-09 01:58N 33°44' W 118°17'0 0.0
2018-Dec-09 01:24N 33°44' W 118°17'0 0.0
2018-Dec-09 01:00N 33°44' W 118°17'0 0.0
2018-Dec-09 00:28N 33°44' W 118°17'0 0.0
2018-Dec-08 23:59N 33°44' W 118°17'0 0.0
2018-Dec-08 23:27N 33°44' W 118°17'1 2.1
2018-Dec-08 23:00N 33°44' W 118°16'1 2.9
2018-Dec-08 22:30N 33°43' W 118°15'2 3.3
2018-Dec-08 22:00N 33°41' W 118°13'1 1.8
2018-Dec-08 21:30N 33°42' W 118°14'1 2.3
2018-Dec-08 21:00N 33°43' W 118°15'2 3.6
2018-Dec-08 20:30N 33°44' W 118°17'0 0.4
2018-Dec-08 19:55N 33°44' W 118°17'0 0.0
2018-Dec-08 19:24N 33°44' W 118°17'0 0.0
2018-Dec-08 18:52N 33°44' W 118°17'0 0.0
2018-Dec-08 18:07N 33°44' W 118°17'0 0.0
2018-Dec-08 17:55N 33°44' W 118°17'0 0.0
2018-Dec-08 17:10N 33°44' W 118°17'0 0.0
2018-Dec-08 16:50N 33°44' W 118°17'0 0.0
2018-Dec-08 16:30N 33°44' W 118°17'0 0.0
2018-Dec-08 15:56N 33°44' W 118°17'0 0.0
2018-Dec-08 15:24N 33°44' W 118°17'0 0.0
2018-Dec-08 14:43N 33°44' W 118°17'0 0.0
2018-Dec-08 14:22N 33°44' W 118°17'0 0.0
2018-Dec-08 13:55N 33°44' W 118°17'0 0.0
2018-Dec-08 13:09N 33°44' W 118°17'0 0.0
2018-Dec-08 12:02N 33°44' W 118°17'0 0.0
2018-Dec-08 10:35N 33°44' W 118°17'0 0.0
2018-Dec-08 10:29N 33°44' W 118°17'0 0.0
2018-Dec-08 09:38N 33°44' W 118°17'0 0.0
2018-Dec-08 09:29N 33°44' W 118°17'0 0.0
2018-Dec-08 08:56N 33°44' W 118°17'0 0.0
2018-Dec-08 08:28N 33°44' W 118°17'0 0.0
2018-Dec-08 07:44N 33°44' W 118°17'0 0.0
2018-Dec-08 06:42N 33°44' W 118°17'0 0.0
2018-Dec-08 06:11N 33°44' W 118°17'0 0.0
2018-Dec-08 05:59N 33°44' W 118°17'0 0.0
2018-Dec-08 04:29N 33°44' W 118°17'0 0.0
2018-Dec-08 03:17N 33°44' W 118°17'0 0.0
2018-Dec-08 02:34N 33°44' W 118°17'0 0.1
2018-Dec-08 02:28N 33°44' W 118°17'0 0.0
2018-Dec-08 00:36N 33°44' W 118°17'0 0.0
2018-Dec-07 22:15N 33°44' W 118°17'0 0.0
2018-Dec-07 21:42N 33°44' W 118°17'0 0.0
2018-Dec-07 21:20N 33°44' W 118°17'0 0.0
2018-Dec-07 20:58N 33°44' W 118°17'0 0.0
2018-Dec-07 20:17N 33°44' W 118°17'0 0.0
2018-Dec-07 18:57N 33°44' W 118°17'0 0.0
2018-Dec-07 18:03N 33°44' W 118°17'0 0.0
2018-Dec-07 17:57N 33°44' W 118°17'0 0.0
2018-Dec-07 16:37N 33°44' W 118°17'0 0.0
2018-Dec-07 16:16N 33°44' W 118°17'0 0.0
2018-Dec-07 15:58N 33°44' W 118°17'0 0.0
2018-Dec-07 15:15N 33°44' W 118°17'0 0.0
2018-Dec-07 15:00N 33°44' W 118°17'0 0.0
2018-Dec-07 14:05N 33°44' W 118°17'0 0.0
2018-Dec-07 13:42N 33°44' W 118°17'0 0.0
2018-Dec-07 13:27N 33°44' W 118°17'0 0.0
2018-Dec-07 12:17N 33°44' W 118°17'0 0.0
2018-Dec-07 08:46N 33°44' W 118°17'0 0.0
2018-Dec-07 08:30N 33°44' W 118°17'0 0.0
2018-Dec-07 07:54N 33°44' W 118°17'0 0.0
2018-Dec-07 06:53N 33°44' W 118°17'0 0.0
2018-Dec-07 03:58N 33°44' W 118°17'0 0.0
2018-Dec-07 03:30N 33°44' W 118°17'0 0.0
2018-Dec-07 00:36N 33°44' W 118°17'0 0.0
2018-Dec-07 00:28N 33°44' W 118°17'0 0.0
2018-Dec-06 23:55N 33°44' W 118°17'0 0.0
2018-Dec-06 23:28N 33°44' W 118°17'0 0.0
2018-Dec-06 22:58N 33°44' W 118°17'0 0.0
2018-Dec-06 22:30N 33°44' W 118°17'0 0.0
2018-Dec-06 21:53N 33°44' W 118°17'0 0.0
2018-Dec-06 20:35N 33°44' W 118°17'0 0.0
2018-Dec-06 20:29N 33°44' W 118°17'0 0.0
2018-Dec-06 19:43N 33°44' W 118°17'0 0.0
2018-Dec-06 19:23N 33°44' W 118°17'0 0.0
2018-Dec-06 18:52N 33°44' W 118°17'0 0.0
2018-Dec-06 18:09N 33°44' W 118°17'0 0.0
2018-Dec-06 17:47N 33°44' W 118°17'0 0.0
2018-Dec-06 17:11N 33°44' W 118°17'0 0.0
2018-Dec-06 16:07N 33°44' W 118°17'0 0.0
2018-Dec-06 15:58N 33°44' W 118°17'0 0.0
2018-Dec-06 15:28N 33°44' W 118°17'0 0.0
2018-Dec-06 14:54N 33°44' W 118°17'0 0.0
2018-Dec-06 14:29N 33°44' W 118°17'0 0.0
2018-Dec-06 13:59N 33°44' W 118°17'0 0.0
2018-Dec-06 13:28N 33°44' W 118°17'0 0.0
2018-Dec-06 13:00N 33°44' W 118°17'0 0.0
2018-Dec-06 12:29N 33°44' W 118°17'0 0.0
2018-Dec-06 11:59N 33°44' W 118°17'0 0.0
2018-Dec-06 11:25N 33°44' W 118°17'0 0.0
2018-Dec-06 10:54N 33°44' W 118°17'0 0.0
2018-Dec-06 10:28N 33°44' W 118°17'0 0.0
2018-Dec-06 09:58N 33°44' W 118°17'0 0.0
2018-Dec-06 09:27N 33°44' W 118°17'0 0.0
2018-Dec-06 08:59N 33°44' W 118°17'0 0.0
2018-Dec-06 08:30N 33°44' W 118°17'0 0.0
2018-Dec-06 07:57N 33°44' W 118°17'0 0.0
2018-Dec-06 07:30N 33°44' W 118°17'0 0.0
2018-Dec-06 07:00N 33°44' W 118°17'0 0.0
2018-Dec-06 06:22N 33°44' W 118°17'0 0.0
2018-Dec-06 05:55N 33°44' W 118°17'0 0.0
2018-Dec-06 05:29N 33°44' W 118°17'0 0.0
2018-Dec-06 04:57N 33°44' W 118°17'0 0.0
2018-Dec-06 04:27N 33°44' W 118°17'0 0.0
2018-Dec-06 03:59N 33°44' W 118°17'0 0.0
2018-Dec-06 03:22N 33°44' W 118°17'0 0.0
2018-Dec-06 02:24N 33°44' W 118°17'0 0.0
2018-Dec-06 02:00N 33°44' W 118°17'0 0.0
2018-Dec-06 01:25N 33°44' W 118°17'0 0.0
2018-Dec-06 00:53N 33°44' W 118°17'0 0.0
2018-Dec-06 00:17N 33°44' W 118°17'0 0.0
2018-Dec-05 23:57N 33°44' W 118°17'0 0.0
2018-Dec-05 23:29N 33°44' W 118°17'0 0.0
2018-Dec-05 23:00N 33°44' W 118°17'0 0.0
2018-Dec-05 22:30N 33°44' W 118°17'0 0.0
2018-Dec-05 21:57N 33°44' W 118°17'0 0.0
2018-Dec-05 21:28N 33°44' W 118°17'0 0.0
2018-Dec-05 20:57N 33°44' W 118°17'0 0.0
2018-Dec-05 20:30N 33°44' W 118°17'0 0.0
2018-Dec-05 20:00N 33°44' W 118°17'0 0.0
2018-Dec-05 19:30N 33°44' W 118°17'0 0.0
2018-Dec-05 19:00N 33°44' W 118°17'0 0.0
2018-Dec-05 18:30N 33°44' W 118°17'0 0.5
2018-Dec-05 18:00N 33°44' W 118°17'1 2.3
2018-Dec-05 17:30N 33°43' W 118°16'0 0.3
2018-Dec-05 17:00N 33°43' W 118°16'2 3.2
2018-Dec-05 16:30N 33°42' W 118°15'2 3.3
2018-Dec-05 16:00N 33°41' W 118°17'1 1.8
2018-Dec-05 15:29N 33°41' W 118°18'1 1.1
2018-Dec-05 15:00N 33°41' W 118°19'2 4.2
2018-Dec-05 14:29N 33°39' W 118°19'1 2.6
2018-Dec-05 14:00N 33°37' W 118°19'2 3.8
2018-Dec-05 13:30N 33°39' W 118°18'1 2.9
2018-Dec-05 12:59N 33°40' W 118°18'0 0.6
2018-Dec-05 12:29N 33°40' W 118°18'1 1.4
2018-Dec-05 11:50N 33°40' W 118°18'1 1.6
2018-Dec-05 11:26N 33°39' W 118°19'4 0.9
2018-Dec-05 06:30N 33°35' W 118°21'1 2.7
2018-Dec-05 05:59N 33°36' W 118°20'2 2.9
2018-Dec-05 05:28N 33°37' W 118°19'2 2.4
2018-Dec-05 04:49N 33°39' W 118°18'1 2.2
2018-Dec-05 04:23N 33°40' W 118°17'1 1.8
2018-Dec-05 03:56N 33°40' W 118°17'0 0.9
2018-Dec-05 03:26N 33°40' W 118°16'1 1.0
2018-Dec-05 02:55N 33°40' W 118°16'0 1.0
2018-Dec-05 02:30N 33°41' W 118°15'0 0.4
2018-Dec-05 01:34N 33°40' W 118°15'0 1.1
2018-Dec-05 01:12N 33°40' W 118°15'0 0.8
2018-Dec-05 00:57N 33°40' W 118°15'0 0.2
2018-Dec-05 00:28N 33°40' W 118°15'0 0.2
2018-Dec-04 23:46N 33°39' W 118°15'0 0.2
2018-Dec-04 23:23N 33°39' W 118°15'0 0.2
2018-Dec-04 22:54N 33°39' W 118°15'0 0.3
2018-Dec-04 22:24N 33°39' W 118°16'0 0.4
2018-Dec-04 21:58N 33°39' W 118°16'0 0.4
2018-Dec-04 21:29N 33°40' W 118°16'2 3.9
2018-Dec-04 20:56N 33°42' W 118°15'1 3.4
2018-Dec-04 20:30N 33°43' W 118°16'1 2.6
2018-Dec-04 19:57N 33°44' W 118°17'0 0.0
2018-Dec-04 19:29N 33°44' W 118°17'0 0.0
2018-Dec-04 18:59N 33°44' W 118°17'0 0.0
2018-Dec-04 18:30N 33°44' W 118°17'0 0.0
2018-Dec-04 17:59N 33°44' W 118°17'0 0.0
2018-Dec-04 17:25N 33°44' W 118°17'0 0.0
2018-Dec-04 16:59N 33°44' W 118°17'0 0.0
2018-Dec-04 16:28N 33°44' W 118°17'0 0.0
2018-Dec-04 15:59N 33°44' W 118°17'0 0.0
2018-Dec-04 15:26N 33°44' W 118°17'0 0.0
2018-Dec-04 14:54N 33°44' W 118°17'0 0.0
2018-Dec-04 14:28N 33°44' W 118°17'0 0.0
2018-Dec-04 13:56N 33°44' W 118°17'0 0.0
2018-Dec-04 13:28N 33°44' W 118°17'0 0.0
2018-Dec-04 12:57N 33°44' W 118°17'0 0.0
2018-Dec-04 12:22N 33°44' W 118°17'0 0.0
2018-Dec-04 11:59N 33°44' W 118°17'0 0.0
2018-Dec-04 11:26N 33°44' W 118°17'0 0.0
2018-Dec-04 10:56N 33°44' W 118°17'0 0.0
2018-Dec-04 10:28N 33°44' W 118°17'0 0.0
2018-Dec-04 09:55N 33°44' W 118°17'0 0.0
2018-Dec-04 09:25N 33°44' W 118°17'0 0.0
2018-Dec-04 08:59N 33°44' W 118°17'0 0.0
2018-Dec-04 08:28N 33°44' W 118°17'0 0.0
2018-Dec-04 07:57N 33°44' W 118°17'0 0.0
2018-Dec-04 07:28N 33°44' W 118°17'0 0.0
2018-Dec-04 06:54N 33°44' W 118°17'0 0.0
2018-Dec-04 06:29N 33°44' W 118°17'0 0.0
2018-Dec-04 05:59N 33°44' W 118°17'0 0.0
2018-Dec-04 05:23N 33°44' W 118°17'0 0.0
2018-Dec-04 04:58N 33°44' W 118°17'0 0.0
2018-Dec-04 04:28N 33°44' W 118°17'0 0.0
2018-Dec-04 03:55N 33°44' W 118°17'0 0.0
2018-Dec-04 03:26N 33°44' W 118°17'0 0.0
2018-Dec-04 02:59N 33°44' W 118°17'0 0.0
2018-Dec-04 02:28N 33°44' W 118°17'0 0.0
2018-Dec-04 01:55N 33°44' W 118°17'0 0.0
2018-Dec-04 01:29N 33°44' W 118°17'0 0.0
2018-Dec-04 00:59N 33°44' W 118°17'0 0.0
2018-Dec-04 00:28N 33°44' W 118°17'0 0.0
2018-Dec-03 23:59N 33°44' W 118°17'0 0.0
2018-Dec-03 23:28N 33°44' W 118°17'0 0.0
2018-Dec-03 22:54N 33°44' W 118°17'0 0.0
2018-Dec-03 22:19N 33°44' W 118°17'0 0.0
2018-Dec-03 22:00N 33°44' W 118°17'0 0.0
2018-Dec-03 21:25N 33°44' W 118°17'0 0.0
2018-Dec-03 20:54N 33°44' W 118°17'0 0.0
2018-Dec-03 20:28N 33°44' W 118°17'0 0.0
2018-Dec-03 20:00N 33°44' W 118°17'0 0.0
2018-Dec-03 19:26N 33°44' W 118°17'0 0.4
2018-Dec-03 18:52N 33°44' W 118°17'1 1.9
2018-Dec-03 18:28N 33°45' W 118°16'1 1.4
2018-Dec-03 17:59N 33°44' W 118°17'0 0.0
2018-Dec-03 17:30N 33°44' W 118°17'0 0.0
2018-Dec-03 16:54N 33°44' W 118°17'0 0.0
2018-Dec-03 16:28N 33°44' W 118°17'0 0.0
2018-Dec-03 15:59N 33°44' W 118°17'0 0.0
2018-Dec-03 15:30N 33°44' W 118°17'0 0.0
2018-Dec-03 14:57N 33°44' W 118°17'0 0.0
2018-Dec-03 14:29N 33°44' W 118°17'0 0.0
2018-Dec-03 14:00N 33°44' W 118°17'0 0.0
2018-Dec-03 13:26N 33°44' W 118°17'0 0.0
2018-Dec-03 12:54N 33°44' W 118°17'0 0.0
2018-Dec-03 12:27N 33°44' W 118°17'0 0.0
2018-Dec-03 11:56N 33°44' W 118°17'0 0.0
2018-Dec-03 11:26N 33°44' W 118°17'0 0.0
2018-Dec-03 10:58N 33°44' W 118°17'0 0.0
2018-Dec-03 10:24N 33°44' W 118°17'0 0.0
2018-Dec-03 09:59N 33°44' W 118°17'0 0.0
2018-Dec-03 09:30N 33°44' W 118°17'0 0.0
2018-Dec-03 09:00N 33°44' W 118°17'0 0.0
2018-Dec-03 08:30N 33°44' W 118°17'0 0.0
2018-Dec-03 07:58N 33°44' W 118°17'0 0.0
2018-Dec-03 07:25N 33°44' W 118°17'0 0.0
2018-Dec-03 06:56N 33°44' W 118°17'0 0.0
2018-Dec-03 06:30N 33°44' W 118°17'0 0.0
2018-Dec-03 05:58N 33°44' W 118°17'0 0.0
2018-Dec-03 05:30N 33°44' W 118°17'0 0.0
2018-Dec-03 04:59N 33°44' W 118°17'0 0.0
2018-Dec-03 04:30N 33°44' W 118°17'0 0.0
2018-Dec-03 03:57N 33°44' W 118°17'0 0.0
2018-Dec-03 03:28N 33°44' W 118°17'0 0.0
2018-Dec-03 02:58N 33°44' W 118°17'0 0.0
2018-Dec-03 02:27N 33°44' W 118°17'0 0.0
2018-Dec-03 01:59N 33°44' W 118°17'0 0.0
2018-Dec-03 01:29N 33°44' W 118°17'0 0.0
2018-Dec-03 01:00N 33°44' W 118°17'0 0.0
2018-Dec-03 00:25N 33°44' W 118°17'0 0.0
2018-Dec-02 23:58N 33°44' W 118°17'0 0.0
2018-Dec-02 23:28N 33°44' W 118°17'0 0.0
2018-Dec-02 23:00N 33°44' W 118°17'0 0.0
2018-Dec-02 22:30N 33°44' W 118°17'0 0.0
2018-Dec-02 21:59N 33°44' W 118°17'0 0.0
2018-Dec-02 21:29N 33°44' W 118°17'0 0.0
2018-Dec-02 21:00N 33°44' W 118°17'0 0.0
2018-Dec-02 20:30N 33°44' W 118°17'0 0.0
2018-Dec-02 19:59N 33°44' W 118°17'0 0.0
2018-Dec-02 19:29N 33°44' W 118°17'0 0.0
2018-Dec-02 18:59N 33°44' W 118°17'0 0.0
2018-Dec-02 18:29N 33°44' W 118°17'0 0.0
2018-Dec-02 17:58N 33°44' W 118°17'0 0.0
2018-Dec-02 17:29N 33°44' W 118°17'0 0.0
2018-Dec-02 17:00N 33°44' W 118°17'0 0.0
2018-Dec-02 16:30N 33°44' W 118°17'0 0.0
2018-Dec-02 16:00N 33°44' W 118°17'0 0.0
2018-Dec-02 15:30N 33°44' W 118°17'0 0.0
2018-Dec-02 15:00N 33°44' W 118°17'0 0.0
2018-Dec-02 14:30N 33°44' W 118°17'0 0.0
2018-Dec-02 14:00N 33°44' W 118°17'0 0.0
2018-Dec-02 13:30N 33°44' W 118°17'0 0.0
2018-Dec-02 13:00N 33°44' W 118°17'0 0.0
2018-Dec-02 12:30N 33°44' W 118°17'0 0.0
2018-Dec-02 12:00N 33°44' W 118°17'0 0.0
2018-Dec-02 11:30N 33°44' W 118°17'0 0.0
2018-Dec-02 11:00N 33°44' W 118°17'0 0.0
2018-Dec-02 10:30N 33°44' W 118°17'0 0.0
2018-Dec-02 10:00N 33°44' W 118°17'0 0.0
2018-Dec-02 09:30N 33°44' W 118°17'0 0.0
2018-Dec-02 09:00N 33°44' W 118°17'0 0.0
2018-Dec-02 08:30N 33°44' W 118°17'0 0.0
2018-Dec-02 08:00N 33°44' W 118°17'0 0.0
2018-Dec-02 07:30N 33°44' W 118°17'0 0.0
2018-Dec-02 07:00N 33°44' W 118°17'0 0.0
2018-Dec-02 06:30N 33°44' W 118°17'0 0.0
2018-Dec-02 06:00N 33°44' W 118°17'0 0.0
2018-Dec-02 05:30N 33°44' W 118°17'  
Track history (hours):
 
Tides and Currents Weather Stations Pressure Air Temp Water Temp Dewpoint Dewpoint Depression Visibility Wind Speed Wind Dir Waves Ship Positions

Exy Johnson (United States)

Ship's website: http://www.lamitopsail.org/index.asp

Owner: Los Angeles Maritime Institute, San Pedro, CA. More information available from US FCC via Universal Licensing System and Coast Guard Vessel Documentation Center.

Last reported at 2018-Dec-12 05:08 UTC. Time now 2018-Dec-12 06:11 UTC.
Position N 33°44' W 118°17'.

Length 34 m; draft 3.7 m.

Type: Sailing vessel. MMSI: 366883970.

Date/timePositionNaut miles runAvg speedWind from/ knotsBaromVisibWave heightAir tempDewpointWater temp
2018-Dec-12 05:08N 33°44' W 118°17'0 0.0
2018-Dec-12 04:27N 33°44' W 118°17'0 0.0
2018-Dec-12 03:45N 33°44' W 118°17'0 0.0
2018-Dec-12 03:27N 33°44' W 118°17'0 0.0
2018-Dec-12 02:51N 33°44' W 118°17'0 0.0
2018-Dec-12 02:18N 33°44' W 118°17'0 0.0
2018-Dec-12 00:41N 33°44' W 118°17'0 0.0
2018-Dec-12 00:25N 33°44' W 118°17'0 0.0
2018-Dec-11 23:39N 33°44' W 118°17'0 0.0
2018-Dec-11 23:10N 33°44' W 118°17'0 0.0
2018-Dec-11 22:55N 33°44' W 118°17'0 0.0
2018-Dec-11 22:13N 33°44' W 118°17'0 0.0
2018-Dec-11 21:55N 33°44' W 118°17'0 0.0
2018-Dec-11 21:16N 33°44' W 118°17'0 0.0
2018-Dec-11 20:59N 33°44' W 118°17'0 0.0
2018-Dec-11 20:29N 33°44' W 118°17'2 4.8
2018-Dec-11 20:00N 33°43' W 118°15'3 6.7
2018-Dec-11 19:30N 33°40' W 118°12'4 4.5
2018-Dec-11 18:34N 33°36' W 118°10'2 4.9
2018-Dec-11 18:14N 33°37' W 118°12'1 5.1
2018-Dec-11 17:59N 33°38' W 118°13'2 5.1
2018-Dec-11 17:30N 33°40' W 118°15'3 5.7
2018-Dec-11 17:00N 33°43' W 118°15'2 3.3
2018-Dec-11 16:24N 33°44' W 118°17'0 0.0
2018-Dec-11 15:39N 33°44' W 118°17'0 0.0
2018-Dec-11 15:25N 33°44' W 118°17'0 0.0
2018-Dec-11 14:29N 33°44' W 118°17'0 0.0
2018-Dec-11 13:59N 33°44' W 118°17'0 0.0
2018-Dec-11 12:27N 33°44' W 118°17'0 0.0
2018-Dec-11 11:55N 33°44' W 118°17'0 0.0
2018-Dec-11 11:21N 33°44' W 118°17'0 0.0
2018-Dec-11 11:00N 33°44' W 118°17'0 0.0
2018-Dec-11 10:29N 33°44' W 118°17'0 0.0
2018-Dec-11 09:58N 33°44' W 118°17'0 0.0
2018-Dec-11 09:05N 33°44' W 118°17'0 0.0
2018-Dec-11 08:45N 33°44' W 118°17'0 0.0
2018-Dec-11 08:29N 33°44' W 118°17'0 0.0
2018-Dec-11 08:00N 33°44' W 118°17'0 0.0
2018-Dec-11 07:26N 33°44' W 118°17'0 0.0
2018-Dec-11 06:53N 33°44' W 118°17'0 0.0
2018-Dec-11 06:30N 33°44' W 118°17'0 0.0
2018-Dec-11 04:45N 33°44' W 118°17'0 0.0
2018-Dec-11 04:28N 33°44' W 118°17'0 0.0
2018-Dec-11 03:54N 33°44' W 118°17'0 0.0
2018-Dec-11 01:49N 33°44' W 118°17'0 0.0
2018-Dec-11 00:54N 33°44' W 118°17'0 0.0
2018-Dec-11 00:21N 33°44' W 118°17'0 0.0
2018-Dec-10 23:24N 33°44' W 118°17'0 0.0
2018-Dec-10 22:52N 33°44' W 118°17'0 0.0
2018-Dec-10 22:23N 33°44' W 118°17'0 0.0
2018-Dec-10 21:57N 33°44' W 118°17'0 0.0
2018-Dec-10 21:25N 33°44' W 118°17'0 0.0
2018-Dec-10 20:53N 33°44' W 118°17'0 0.0
2018-Dec-10 20:25N 33°44' W 118°17'0 0.0
2018-Dec-10 19:58N 33°44' W 118°17'0 0.0
2018-Dec-10 19:30N 33°44' W 118°17'0 0.0
2018-Dec-10 19:00N 33°44' W 118°17'0 0.0
2018-Dec-10 18:14N 33°44' W 118°17'0 0.0
2018-Dec-10 17:46N 33°44' W 118°17'0 0.0
2018-Dec-10 17:25N 33°44' W 118°17'0 0.0
2018-Dec-10 16:50N 33°44' W 118°17'0 0.0
2018-Dec-10 16:04N 33°44' W 118°17'0 0.0
2018-Dec-10 15:56N 33°44' W 118°17'0 0.0
2018-Dec-10 15:25N 33°44' W 118°17'0 0.0
2018-Dec-10 14:51N 33°44' W 118°17'0 0.0
2018-Dec-10 14:30N 33°44' W 118°17'0 0.0
2018-Dec-10 13:39N 33°44' W 118°17'0 0.0
2018-Dec-10 13:00N 33°44' W 118°17'0 0.0
2018-Dec-10 12:28N 33°44' W 118°17'0 0.0
2018-Dec-10 11:40N 33°44' W 118°17'0 0.0
2018-Dec-10 11:25N 33°44' W 118°17'0 0.0
2018-Dec-10 10:54N 33°44' W 118°17'0 0.0
2018-Dec-10 10:30N 33°44' W 118°17'0 0.0
2018-Dec-10 09:58N 33°44' W 118°17'0 0.0
2018-Dec-10 09:00N 33°44' W 118°17'0 0.0
2018-Dec-10 08:15N 33°44' W 118°17'0 0.0
2018-Dec-10 07:58N 33°44' W 118°17'0 0.0
2018-Dec-10 07:14N 33°44' W 118°17'0 0.0
2018-Dec-10 06:58N 33°44' W 118°17'0 0.0
2018-Dec-10 06:07N 33°44' W 118°17'0 0.0
2018-Dec-10 05:39N 33°44' W 118°17'0 0.0
2018-Dec-10 05:24N 33°44' W 118°17'0 0.0
2018-Dec-10 04:36N 33°44' W 118°17'0 0.0
2018-Dec-10 04:25N 33°44' W 118°17'0 0.0
2018-Dec-10 03:49N 33°44' W 118°17'0 0.0
2018-Dec-10 02:30N 33°44' W 118°17'0 0.0
2018-Dec-10 01:54N 33°44' W 118°17'0 0.0
2018-Dec-10 01:24N 33°44' W 118°17'0 0.0
2018-Dec-10 00:54N 33°44' W 118°17'0 0.0
2018-Dec-10 00:27N 33°44' W 118°17'0 0.0
2018-Dec-09 23:58N 33°44' W 118°17'0 0.0
2018-Dec-09 23:28N 33°44' W 118°17'0 0.0
2018-Dec-09 22:51N 33°44' W 118°17'0 0.0
2018-Dec-09 22:22N 33°44' W 118°17'0 0.0
2018-Dec-09 21:57N 33°44' W 118°17'0 0.0
2018-Dec-09 21:29N 33°44' W 118°17'0 0.0
2018-Dec-09 20:53N 33°44' W 118°17'0 0.0
2018-Dec-09 20:25N 33°44' W 118°17'0 0.0
2018-Dec-09 19:58N 33°44' W 118°17'0 0.0
2018-Dec-09 19:24N 33°44' W 118°17'0 0.0
2018-Dec-09 18:59N 33°44' W 118°17'0 0.0
2018-Dec-09 18:25N 33°44' W 118°17'0 0.0
2018-Dec-09 17:57N 33°44' W 118°17'0 0.0
2018-Dec-09 17:18N 33°44' W 118°17'0 0.0
2018-Dec-09 16:51N 33°44' W 118°17'0 0.0
2018-Dec-09 16:30N 33°44' W 118°17'0 0.0
2018-Dec-09 15:43N 33°44' W 118°17'0 0.0
2018-Dec-09 15:17N 33°44' W 118°17'0 0.0
2018-Dec-09 14:48N 33°44' W 118°17'0 0.0
2018-Dec-09 14:22N 33°44' W 118°17'0 0.0
2018-Dec-09 13:39N 33°44' W 118°17'0 0.0
2018-Dec-09 13:27N 33°44' W 118°17'0 0.0
2018-Dec-09 13:00N 33°44' W 118°17'0 0.0
2018-Dec-09 12:22N 33°44' W 118°17'0 0.0
2018-Dec-09 11:26N 33°44' W 118°17'0 0.0
2018-Dec-09 10:56N 33°44' W 118°17'0 0.0
2018-Dec-09 10:22N 33°44' W 118°17'0 0.0
2018-Dec-09 09:55N 33°44' W 118°17'0 0.0
2018-Dec-09 09:30N 33°44' W 118°17'0 0.0
2018-Dec-09 08:58N 33°44' W 118°17'0 0.0
2018-Dec-09 08:29N 33°44' W 118°17'0 0.0
2018-Dec-09 07:48N 33°44' W 118°17'0 0.0
2018-Dec-09 07:26N 33°44' W 118°17'0 0.0
2018-Dec-09 06:51N 33°44' W 118°17'0 0.0
2018-Dec-09 06:11N 33°44' W 118°17'0 0.0
2018-Dec-09 06:00N 33°44' W 118°17'0 0.0
2018-Dec-09 05:24N 33°44' W 118°17'0 0.0
2018-Dec-09 04:54N 33°44' W 118°17'0 0.0
2018-Dec-09 04:27N 33°44' W 118°17'0 0.0
2018-Dec-09 03:59N 33°44' W 118°17'0 0.0
2018-Dec-09 03:25N 33°44' W 118°17'0 0.0
2018-Dec-09 02:59N 33°44' W 118°17'0 0.0
2018-Dec-09 02:24N 33°44' W 118°17'0 0.0
2018-Dec-09 01:58N 33°44' W 118°17'0 0.0
2018-Dec-09 01:24N 33°44' W 118°17'0 0.0
2018-Dec-09 01:00N 33°44' W 118°17'0 0.0
2018-Dec-09 00:28N 33°44' W 118°17'0 0.0
2018-Dec-08 23:59N 33°44' W 118°17'0 0.0
2018-Dec-08 23:27N 33°44' W 118°17'1 2.1
2018-Dec-08 23:00N 33°44' W 118°16'1 2.9
2018-Dec-08 22:30N 33°43' W 118°15'2 3.3
2018-Dec-08 22:00N 33°41' W 118°13'1 1.8
2018-Dec-08 21:30N 33°42' W 118°14'1 2.3
2018-Dec-08 21:00N 33°43' W 118°15'2 3.6
2018-Dec-08 20:30N 33°44' W 118°17'0 0.4
2018-Dec-08 19:55N 33°44' W 118°17'0 0.0
2018-Dec-08 19:24N 33°44' W 118°17'0 0.0
2018-Dec-08 18:52N 33°44' W 118°17'0 0.0
2018-Dec-08 18:07N 33°44' W 118°17'0 0.0
2018-Dec-08 17:55N 33°44' W 118°17'0 0.0
2018-Dec-08 17:10N 33°44' W 118°17'0 0.0
2018-Dec-08 16:50N 33°44' W 118°17'0 0.0
2018-Dec-08 16:30N 33°44' W 118°17'0 0.0
2018-Dec-08 15:56N 33°44' W 118°17'0 0.0
2018-Dec-08 15:24N 33°44' W 118°17'0 0.0
2018-Dec-08 14:43N 33°44' W 118°17'0 0.0
2018-Dec-08 14:22N 33°44' W 118°17'0 0.0
2018-Dec-08 13:55N 33°44' W 118°17'0 0.0
2018-Dec-08 13:09N 33°44' W 118°17'0 0.0
2018-Dec-08 12:02N 33°44' W 118°17'0 0.0
2018-Dec-08 10:35N 33°44' W 118°17'0 0.0
2018-Dec-08 10:29N 33°44' W 118°17'0 0.0
2018-Dec-08 09:38N 33°44' W 118°17'0 0.0
2018-Dec-08 09:29N 33°44' W 118°17'0 0.0
2018-Dec-08 08:56N 33°44' W 118°17'0 0.0
2018-Dec-08 08:28N 33°44' W 118°17'0 0.0
2018-Dec-08 07:44N 33°44' W 118°17'0 0.0
2018-Dec-08 06:42N 33°44' W 118°17'0 0.0
2018-Dec-08 06:11N 33°44' W 118°17'0 0.0
2018-Dec-08 05:59N 33°44' W 118°17'0 0.0
2018-Dec-08 04:29N 33°44' W 118°17'0 0.0
2018-Dec-08 03:17N 33°44' W 118°17'0 0.0
2018-Dec-08 02:34N 33°44' W 118°17'0 0.1
2018-Dec-08 02:28N 33°44' W 118°17'0 0.0
2018-Dec-08 00:36N 33°44' W 118°17'0 0.0
2018-Dec-07 22:15N 33°44' W 118°17'0 0.0
2018-Dec-07 21:42N 33°44' W 118°17'0 0.0
2018-Dec-07 21:20N 33°44' W 118°17'0 0.0
2018-Dec-07 20:58N 33°44' W 118°17'0 0.0
2018-Dec-07 20:17N 33°44' W 118°17'0 0.0
2018-Dec-07 18:57N 33°44' W 118°17'0 0.0
2018-Dec-07 18:03N 33°44' W 118°17'0 0.0
2018-Dec-07 17:57N 33°44' W 118°17'0 0.0
2018-Dec-07 16:37N 33°44' W 118°17'0 0.0
2018-Dec-07 16:16N 33°44' W 118°17'0 0.0
2018-Dec-07 15:58N 33°44' W 118°17'0 0.0
2018-Dec-07 15:15N 33°44' W 118°17'0 0.0
2018-Dec-07 15:00N 33°44' W 118°17'0 0.0
2018-Dec-07 14:05N 33°44' W 118°17'0 0.0
2018-Dec-07 13:42N 33°44' W 118°17'0 0.0
2018-Dec-07 13:27N 33°44' W 118°17'0 0.0
2018-Dec-07 12:17N 33°44' W 118°17'0 0.0
2018-Dec-07 08:46N 33°44' W 118°17'0 0.0
2018-Dec-07 08:30N 33°44' W 118°17'0 0.0
2018-Dec-07 07:54N 33°44' W 118°17'0 0.0
2018-Dec-07 06:53N 33°44' W 118°17'0 0.0
2018-Dec-07 03:58N 33°44' W 118°17'0 0.0
2018-Dec-07 03:30N 33°44' W 118°17'0 0.0
2018-Dec-07 00:36N 33°44' W 118°17'0 0.0
2018-Dec-07 00:28N 33°44' W 118°17'0 0.0
2018-Dec-06 23:55N 33°44' W 118°17'0 0.0
2018-Dec-06 23:28N 33°44' W 118°17'0 0.0
2018-Dec-06 22:58N 33°44' W 118°17'0 0.0
2018-Dec-06 22:30N 33°44' W 118°17'0 0.0
2018-Dec-06 21:53N 33°44' W 118°17'0 0.0
2018-Dec-06 20:35N 33°44' W 118°17'0 0.0
2018-Dec-06 20:29N 33°44' W 118°17'0 0.0
2018-Dec-06 19:43N 33°44' W 118°17'0 0.0
2018-Dec-06 19:23N 33°44' W 118°17'0 0.0
2018-Dec-06 18:52N 33°44' W 118°17'0 0.0
2018-Dec-06 18:09N 33°44' W 118°17'0 0.0
2018-Dec-06 17:47N 33°44' W 118°17'0 0.0
2018-Dec-06 17:11N 33°44' W 118°17'0 0.0
2018-Dec-06 16:07N 33°44' W 118°17'0 0.0
2018-Dec-06 15:58N 33°44' W 118°17'0 0.0
2018-Dec-06 15:28N 33°44' W 118°17'0 0.0
2018-Dec-06 14:54N 33°44' W 118°17'0 0.0
2018-Dec-06 14:29N 33°44' W 118°17'0 0.0
2018-Dec-06 13:59N 33°44' W 118°17'0 0.0
2018-Dec-06 13:28N 33°44' W 118°17'0 0.0
2018-Dec-06 13:00N 33°44' W 118°17'0 0.0
2018-Dec-06 12:29N 33°44' W 118°17'0 0.0
2018-Dec-06 11:59N 33°44' W 118°17'0 0.0
2018-Dec-06 11:25N 33°44' W 118°17'0 0.0
2018-Dec-06 10:54N 33°44' W 118°17'0 0.0
2018-Dec-06 10:28N 33°44' W 118°17'0 0.0
2018-Dec-06 09:58N 33°44' W 118°17'0 0.0
2018-Dec-06 09:27N 33°44' W 118°17'0 0.0
2018-Dec-06 08:59N 33°44' W 118°17'0 0.0
2018-Dec-06 08:30N 33°44' W 118°17'0 0.0
2018-Dec-06 07:57N 33°44' W 118°17'0 0.0
2018-Dec-06 07:30N 33°44' W 118°17'0 0.0
2018-Dec-06 07:00N 33°44' W 118°17'0 0.0
2018-Dec-06 06:22N 33°44' W 118°17'0 0.0
2018-Dec-06 05:55N 33°44' W 118°17'0 0.0
2018-Dec-06 05:29N 33°44' W 118°17'0 0.0
2018-Dec-06 04:57N 33°44' W 118°17'0 0.0
2018-Dec-06 04:27N 33°44' W 118°17'0 0.0
2018-Dec-06 03:59N 33°44' W 118°17'0 0.0
2018-Dec-06 03:22N 33°44' W 118°17'0 0.0
2018-Dec-06 02:24N 33°44' W 118°17'0 0.0
2018-Dec-06 02:00N 33°44' W 118°17'0 0.0
2018-Dec-06 01:25N 33°44' W 118°17'0 0.0
2018-Dec-06 00:53N 33°44' W 118°17'0 0.0
2018-Dec-06 00:17N 33°44' W 118°17'0 0.0
2018-Dec-05 23:57N 33°44' W 118°17'0 0.0
2018-Dec-05 23:29N 33°44' W 118°17'0 0.0
2018-Dec-05 23:00N 33°44' W 118°17'0 0.0
2018-Dec-05 22:30N 33°44' W 118°17'0 0.0
2018-Dec-05 21:57N 33°44' W 118°17'0 0.0
2018-Dec-05 21:28N 33°44' W 118°17'0 0.0
2018-Dec-05 20:57N 33°44' W 118°17'0 0.0
2018-Dec-05 20:30N 33°44' W 118°17'0 0.0
2018-Dec-05 20:00N 33°44' W 118°17'0 0.0
2018-Dec-05 19:30N 33°44' W 118°17'0 0.0
2018-Dec-05 19:00N 33°44' W 118°17'0 0.0
2018-Dec-05 18:30N 33°44' W 118°17'0 0.5
2018-Dec-05 18:00N 33°44' W 118°17'1 2.3
2018-Dec-05 17:30N 33°43' W 118°16'0 0.3
2018-Dec-05 17:00N 33°43' W 118°16'2 3.2
2018-Dec-05 16:30N 33°42' W 118°15'2 3.3
2018-Dec-05 16:00N 33°41' W 118°17'1 1.8
2018-Dec-05 15:29N 33°41' W 118°18'1 1.1
2018-Dec-05 15:00N 33°41' W 118°19'2 4.2
2018-Dec-05 14:29N 33°39' W 118°19'1 2.6
2018-Dec-05 14:00N 33°37' W 118°19'2 3.8
2018-Dec-05 13:30N 33°39' W 118°18'1 2.9
2018-Dec-05 12:59N 33°40' W 118°18'0 0.6
2018-Dec-05 12:29N 33°40' W 118°18'1 1.4
2018-Dec-05 11:50N 33°40' W 118°18'1 1.6
2018-Dec-05 11:26N 33°39' W 118°19'4 0.9
2018-Dec-05 06:30N 33°35' W 118°21'1 2.7
2018-Dec-05 05:59N 33°36' W 118°20'2 2.9
2018-Dec-05 05:28N 33°37' W 118°19'2 2.4
2018-Dec-05 04:49N 33°39' W 118°18'1 2.2
2018-Dec-05 04:23N 33°40' W 118°17'1 1.8
2018-Dec-05 03:56N 33°40' W 118°17'0 0.9
2018-Dec-05 03:26N 33°40' W 118°16'1 1.0
2018-Dec-05 02:55N 33°40' W 118°16'0 1.0
2018-Dec-05 02:30N 33°41' W 118°15'0 0.4
2018-Dec-05 01:34N 33°40' W 118°15'0 1.1
2018-Dec-05 01:12N 33°40' W 118°15'0 0.8
2018-Dec-05 00:57N 33°40' W 118°15'0 0.2
2018-Dec-05 00:28N 33°40' W 118°15'0 0.2
2018-Dec-04 23:46N 33°39' W 118°15'0 0.2
2018-Dec-04 23:23N 33°39' W 118°15'0 0.2
2018-Dec-04 22:54N 33°39' W 118°15'0 0.3
2018-Dec-04 22:24N 33°39' W 118°16'0 0.4
2018-Dec-04 21:58N 33°39' W 118°16'0 0.4
2018-Dec-04 21:29N 33°40' W 118°16'2 3.9
2018-Dec-04 20:56N 33°42' W 118°15'1 3.4
2018-Dec-04 20:30N 33°43' W 118°16'1 2.6
2018-Dec-04 19:57N 33°44' W 118°17'0 0.0
2018-Dec-04 19:29N 33°44' W 118°17'0 0.0
2018-Dec-04 18:59N 33°44' W 118°17'0 0.0
2018-Dec-04 18:30N 33°44' W 118°17'0 0.0
2018-Dec-04 17:59N 33°44' W 118°17'0 0.0
2018-Dec-04 17:25N 33°44' W 118°17'0 0.0
2018-Dec-04 16:59N 33°44' W 118°17'0 0.0
2018-Dec-04 16:28N 33°44' W 118°17'0 0.0
2018-Dec-04 15:59N 33°44' W 118°17'0 0.0
2018-Dec-04 15:26N 33°44' W 118°17'0 0.0
2018-Dec-04 14:54N 33°44' W 118°17'0 0.0
2018-Dec-04 14:28N 33°44' W 118°17'0 0.0
2018-Dec-04 13:56N 33°44' W 118°17'0 0.0
2018-Dec-04 13:28N 33°44' W 118°17'0 0.0
2018-Dec-04 12:57N 33°44' W 118°17'0 0.0
2018-Dec-04 12:22N 33°44' W 118°17'0 0.0
2018-Dec-04 11:59N 33°44' W 118°17'0 0.0
2018-Dec-04 11:26N 33°44' W 118°17'0 0.0
2018-Dec-04 10:56N 33°44' W 118°17'0 0.0
2018-Dec-04 10:28N 33°44' W 118°17'0 0.0
2018-Dec-04 09:55N 33°44' W 118°17'0 0.0
2018-Dec-04 09:25N 33°44' W 118°17'0 0.0
2018-Dec-04 08:59N 33°44' W 118°17'0 0.0
2018-Dec-04 08:28N 33°44' W 118°17'0 0.0
2018-Dec-04 07:57N 33°44' W 118°17'0 0.0
2018-Dec-04 07:28N 33°44' W 118°17'0 0.0
2018-Dec-04 06:54N 33°44' W 118°17'0 0.0
2018-Dec-04 06:29N 33°44' W 118°17'0 0.0
2018-Dec-04 05:59N 33°44' W 118°17'0 0.0
2018-Dec-04 05:23N 33°44' W 118°17'0 0.0
2018-Dec-04 04:58N 33°44' W 118°17'0 0.0
2018-Dec-04 04:28N 33°44' W 118°17'0 0.0
2018-Dec-04 03:55N 33°44' W 118°17'0 0.0
2018-Dec-04 03:26N 33°44' W 118°17'0 0.0
2018-Dec-04 02:59N 33°44' W 118°17'0 0.0
2018-Dec-04 02:28N 33°44' W 118°17'0 0.0
2018-Dec-04 01:55N 33°44' W 118°17'0 0.0
2018-Dec-04 01:29N 33°44' W 118°17'0 0.0
2018-Dec-04 00:59N 33°44' W 118°17'0 0.0
2018-Dec-04 00:28N 33°44' W 118°17'0 0.0
2018-Dec-03 23:59N 33°44' W 118°17'0 0.0
2018-Dec-03 23:28N 33°44' W 118°17'0 0.0
2018-Dec-03 22:54N 33°44' W 118°17'0 0.0
2018-Dec-03 22:19N 33°44' W 118°17'0 0.0
2018-Dec-03 22:00N 33°44' W 118°17'0 0.0
2018-Dec-03 21:25N 33°44' W 118°17'0 0.0
2018-Dec-03 20:54N 33°44' W 118°17'0 0.0
2018-Dec-03 20:28N 33°44' W 118°17'0 0.0
2018-Dec-03 20:00N 33°44' W 118°17'0 0.0
2018-Dec-03 19:26N 33°44' W 118°17'0 0.4
2018-Dec-03 18:52N 33°44' W 118°17'1 1.9
2018-Dec-03 18:28N 33°45' W 118°16'1 1.4
2018-Dec-03 17:59N 33°44' W 118°17'0 0.0
2018-Dec-03 17:30N 33°44' W 118°17'0 0.0
2018-Dec-03 16:54N 33°44' W 118°17'0 0.0
2018-Dec-03 16:28N 33°44' W 118°17'0 0.0
2018-Dec-03 15:59N 33°44' W 118°17'0 0.0
2018-Dec-03 15:30N 33°44' W 118°17'0 0.0
2018-Dec-03 14:57N 33°44' W 118°17'0 0.0
2018-Dec-03 14:29N 33°44' W 118°17'0 0.0
2018-Dec-03 14:00N 33°44' W 118°17'0 0.0
2018-Dec-03 13:26N 33°44' W 118°17'0 0.0
2018-Dec-03 12:54N 33°44' W 118°17'0 0.0
2018-Dec-03 12:27N 33°44' W 118°17'0 0.0
2018-Dec-03 11:56N 33°44' W 118°17'0 0.0
2018-Dec-03 11:26N 33°44' W 118°17'0 0.0
2018-Dec-03 10:58N 33°44' W 118°17'0 0.0
2018-Dec-03 10:24N 33°44' W 118°17'0 0.0
2018-Dec-03 09:59N 33°44' W 118°17'0 0.0
2018-Dec-03 09:30N 33°44' W 118°17'0 0.0
2018-Dec-03 09:00N 33°44' W 118°17'0 0.0
2018-Dec-03 08:30N 33°44' W 118°17'0 0.0
2018-Dec-03 07:58N 33°44' W 118°17'0 0.0
2018-Dec-03 07:25N 33°44' W 118°17'0 0.0
2018-Dec-03 06:56N 33°44' W 118°17'0 0.0
2018-Dec-03 06:30N 33°44' W 118°17'0 0.0
2018-Dec-03 05:58N 33°44' W 118°17'0 0.0
2018-Dec-03 05:30N 33°44' W 118°17'0 0.0
2018-Dec-03 04:59N 33°44' W 118°17'0 0.0
2018-Dec-03 04:30N 33°44' W 118°17'0 0.0
2018-Dec-03 03:57N 33°44' W 118°17'0 0.0
2018-Dec-03 03:28N 33°44' W 118°17'0 0.0
2018-Dec-03 02:58N 33°44' W 118°17'0 0.0
2018-Dec-03 02:27N 33°44' W 118°17'0 0.0
2018-Dec-03 01:59N 33°44' W 118°17'0 0.0
2018-Dec-03 01:29N 33°44' W 118°17'0 0.0
2018-Dec-03 01:00N 33°44' W 118°17'0 0.0
2018-Dec-03 00:25N 33°44' W 118°17'0 0.0
2018-Dec-02 23:58N 33°44' W 118°17'0 0.0
2018-Dec-02 23:28N 33°44' W 118°17'0 0.0
2018-Dec-02 23:00N 33°44' W 118°17'0 0.0
2018-Dec-02 22:30N 33°44' W 118°17'0 0.0
2018-Dec-02 21:59N 33°44' W 118°17'0 0.0
2018-Dec-02 21:29N 33°44' W 118°17'0 0.0
2018-Dec-02 21:00N 33°44' W 118°17'0 0.0
2018-Dec-02 20:30N 33°44' W 118°17'0 0.0
2018-Dec-02 19:59N 33°44' W 118°17'0 0.0
2018-Dec-02 19:29N 33°44' W 118°17'0 0.0
2018-Dec-02 18:59N 33°44' W 118°17'0 0.0
2018-Dec-02 18:29N 33°44' W 118°17'0 0.0
2018-Dec-02 17:58N 33°44' W 118°17'0 0.0
2018-Dec-02 17:29N 33°44' W 118°17'0 0.0
2018-Dec-02 17:00N 33°44' W 118°17'0 0.0
2018-Dec-02 16:30N 33°44' W 118°17'0 0.0
2018-Dec-02 16:00N 33°44' W 118°17'0 0.0
2018-Dec-02 15:30N 33°44' W 118°17'0 0.0
2018-Dec-02 15:00N 33°44' W 118°17'0 0.0
2018-Dec-02 14:30N 33°44' W 118°17'0 0.0
2018-Dec-02 14:00N 33°44' W 118°17'0 0.0
2018-Dec-02 13:30N 33°44' W 118°17'0 0.0
2018-Dec-02 13:00N 33°44' W 118°17'0 0.0
2018-Dec-02 12:30N 33°44' W 118°17'0 0.0
2018-Dec-02 12:00N 33°44' W 118°17'0 0.0
2018-Dec-02 11:30N 33°44' W 118°17'0 0.0
2018-Dec-02 11:00N 33°44' W 118°17'0 0.0
2018-Dec-02 10:30N 33°44' W 118°17'0 0.0
2018-Dec-02 10:00N 33°44' W 118°17'0 0.0
2018-Dec-02 09:30N 33°44' W 118°17'0 0.0
2018-Dec-02 09:00N 33°44' W 118°17'0 0.0
2018-Dec-02 08:30N 33°44' W 118°17'0 0.0
2018-Dec-02 08:00N 33°44' W 118°17'0 0.0
2018-Dec-02 07:30N 33°44' W 118°17'0 0.0
2018-Dec-02 07:00N 33°44' W 118°17'0 0.0
2018-Dec-02 06:30N 33°44' W 118°17'0 0.0
2018-Dec-02 06:00N 33°44' W 118°17'0 0.0
2018-Dec-02 05:30N 33°44' W 118°17'  

Dump ship's entire track history